KTIW/TIW METAR and TAF weather

Enter ICAO airport designator
Station Type Date Time Source
KTIW METAR 2022/06/28 08:53 UTC NOAA

KTIW 280853Z AUTO 25007KT 10SM CLR 14/12 A3001 RMK AO2 SLP159 T01390117 50009


Station Type Date Time Source
KTIW Decoded METAR 2022/06/28 08:53 UTC NOAA

Tacoma, Tacoma Narrows Airport, WA, United States (KTIW) 47-16-03N 122-34-34W 96M
Jun 28, 2022 - 04:53 AM EDT / 2022.06.28 0853 UTC
Wind: from the WSW (250 degrees) at 8 MPH (7 KT):0
Visibility: 10 mile(s):0
Sky conditions: clear
Temperature: 57.0 F (13.9 C)
Dew Point: 53.1 F (11.7 C)
Relative Humidity: 86%
Pressure (altimeter): 30.01 in. Hg (1016 hPa)
Pressure tendency: 0.03 inches (0.9 hPa) higher than three hours ago
ob: KTIW 280853Z AUTO 25007KT 10SM CLR 14/12 A3001 RMK AO2 SLP159 T01390117 50009
cycle: 9

Station Type Date Time Source
KTIW TAF UTC NOAA

Error!

Example: see airport list